Time;durP1;ratioP1;P1;durP2;ratioP2;P2;SDS_P1;SDS_P2;PMS_P1;PMS_P2;Temp;Humidity;BMP_temperature;BMP_pressure;BME280_temperature;BME280_humidity;BME280_pressure;Samples;Min_cycle;Max_cycle;Signal;HPM_P1;HPM_P2
2021/04/12 00:00:31;;;;;;;54.63;33.60;;;;;;;7.46;46.79;100312.68;1817823;78;22709;-44
2021/04/12 00:03:11;;;;;;;56.37;34.80;;;;;;;7.37;45.91;100318.06;1801225;79;21664;-44
2021/04/12 00:06:10;;;;;;;58.52;34.20;;;;;;;7.34;46.43;100313.86;1796970;79;21016;-44
2021/04/12 00:08:46;;;;;;;53.78;34.73;;;;;;;7.31;46.56;100310.45;1712828;81;22309;-43
2021/04/12 00:11:42;;;;;;;56.02;35.23;;;;;;;7.27;47.36;100304.87;1753883;80;21023;-43
2021/04/12 00:14:27;;;;;;;56.68;36.08;;;;;;;7.24;47.96;100310.91;1715984;80;21140;-43
2021/04/12 00:17:07;;;;;;;57.93;36.10;;;;;;;7.22;48.15;100313.66;1749714;80;21026;-44
2021/04/12 00:19:59;;;;;;;57.25;36.75;;;;;;;7.19;47.61;100307.55;1758861;80;21207;-43
2021/04/12 00:22:41;;;;;;;55.88;35.88;;;;;;;7.16;47.21;100307.64;1742555;80;21032;-43
2021/04/12 00:25:16;;;;;;;63.10;36.98;;;;;;;7.12;47.48;100305.30;1745801;82;21071;-44
2021/04/12 00:28:09;;;;;;;62.88;37.78;;;;;;;7.09;47.60;100302.45;1754831;80;21179;-43
2021/04/12 00:30:46;;;;;;;62.35;37.55;;;;;;;7.07;48.13;100305.45;1772487;80;21538;-43
2021/04/12 00:33:22;;;;;;;63.13;38.53;;;;;;;7.03;48.44;100305.84;1777785;80;21278;-43
2021/04/12 00:36:05;;;;;;;62.75;36.65;;;;;;;7.01;48.38;100309.42;1744628;80;21186;-44
2021/04/12 00:38:58;;;;;;;59.15;36.93;;;;;;;7.01;47.94;100312.11;1743821;80;21609;-43
2021/04/12 00:41:38;;;;;;;60.05;35.58;;;;;;;6.99;48.04;100307.58;1762102;80;21142;-43
2021/04/12 00:44:48;;;;;;;58.92;35.73;;;;;;;6.94;47.68;100297.73;1752627;80;21161;-43
2021/04/12 00:47:34;;;;;;;55.50;34.70;;;;;;;6.93;47.83;100300.72;1760237;80;22447;-43
2021/04/12 00:50:29;;;;;;;57.83;35.48;;;;;;;6.87;48.46;100300.06;1764665;78;21035;-43
2021/04/12 00:53:15;;;;;;;58.00;35.75;;;;;;;6.87;48.76;100299.30;1745184;82;21441;-43
2021/04/12 00:56:06;;;;;;;57.05;35.17;;;;;;;6.48;49.00;100242.95;1754131;80;21451;-44
2021/04/12 00:59:18;;;;;;;61.37;37.60;;;;;;;6.82;49.06;100290.00;1745311;80;21187;-43
2021/04/12 01:01:56;;;;;;;58.13;35.23;;;;;;;6.80;49.16;100288.95;1746690;79;23516;-43
2021/04/12 01:04:53;;;;;;;63.10;34.92;;;;;;;6.75;48.68;100296.38;1688373;84;21197;-43
2021/04/12 01:07:36;;;;;;;55.83;35.80;;;;;;;6.72;48.26;100292.42;1735202;81;21167;-43
2021/04/12 01:10:23;;;;;;;53.73;34.20;;;;;;;6.69;48.57;100291.67;1735601;81;21173;-43
2021/04/12 01:13:37;;;;;;;57.20;35.33;;;;;;;6.67;48.39;100283.67;1724576;82;21162;-44
2021/04/12 01:16:41;;;;;;;55.55;33.92;;;;;;;6.64;48.58;100282.93;1758084;80;23531;-43
2021/04/12 01:19:27;;;;;;;55.28;34.23;;;;;;;6.58;48.48;100279.60;1738466;81;21478;-44
2021/04/12 01:22:36;;;;;;;61.53;35.08;;;;;;;6.55;48.74;100281.55;1720910;81;21150;-44
2021/04/12 01:25:58;;;;;;;56.53;35.15;;;;;;;6.53;48.59;100273.77;1727455;81;21163;-44
2021/04/12 01:29:00;;;;;;;57.00;35.15;;;;;;;6.49;48.32;100272.80;1736245;80;21653;-44
2021/04/12 01:32:19;;;;;;;59.85;34.23;;;;;;;6.42;48.27;100268.98;1779768;78;21186;-44
2021/04/12 01:35:25;;;;;;;57.97;32.03;;;;;;;6.38;48.08;100260.73;1799399;79;21649;-44
2021/04/12 01:38:24;;;;;;;54.38;33.23;;;;;;;6.33;48.15;100252.78;1802133;79;21183;-44
2021/04/12 01:41:13;;;;;;;56.45;32.93;;;;;;;6.29;48.16;100254.51;1801535;79;21146;-44
2021/04/12 01:44:25;;;;;;;57.10;33.75;;;;;;;6.25;48.21;100253.52;1787193;78;21625;-44
2021/04/12 01:47:32;;;;;;;56.25;32.10;;;;;;;6.23;48.17;100249.00;1786433;78;21561;-44
2021/04/12 01:50:38;;;;;;;48.90;32.13;;;;;;;6.18;48.12;100242.95;1778100;79;21177;-44
2021/04/12 01:53:30;;;;;;;53.13;31.35;;;;;;;6.14;48.18;100242.78;1780269;78;21187;-44
2021/04/12 01:56:20;;;;;;;54.10;30.72;;;;;;;6.09;47.74;100242.36;1804262;77;21182;-44
2021/04/12 01:59:18;;;;;;;51.18;31.05;;;;;;;6.06;47.83;100236.22;1785911;79;21162;-44
2021/04/12 02:02:19;;;;;;;53.35;30.37;;;;;;;6.06;47.70;100230.05;1782609;79;21285;-44
2021/04/12 02:05:02;;;;;;;51.55;29.12;;;;;;;6.05;47.44;100227.13;1784336;79;21911;-44
2021/04/12 02:07:52;;;;;;;47.90;28.23;;;;;;;5.59;47.04;100163.65;1781721;79;21167;-44
2021/04/12 02:10:58;;;;;;;47.13;28.32;;;;;;;6.00;46.80;100226.68;1782481;79;21131;-44
2021/04/12 02:13:50;;;;;;;50.35;27.45;;;;;;;5.99;46.22;100225.66;1793368;79;21166;-44
2021/04/12 02:16:59;;;;;;;46.25;27.05;;;;;;;5.95;45.92;100221.45;1790106;79;21187;-44
2021/04/12 02:19:51;;;;;;;48.58;26.85;;;;;;;5.95;44.60;100218.77;1781261;79;21035;-44
2021/04/12 02:23:00;;;;;;;47.40;27.37;;;;;;;5.95;44.61;100217.97;1801044;79;21118;-44
2021/04/12 02:25:35;;;;;;;43.20;26.85;;;;;;;5.97;44.84;100214.40;1798329;77;21035;-45
2021/04/12 02:28:26;;;;;;;47.78;27.77;;;;;;;5.98;45.58;100217.34;1788881;79;21157;-45
2021/04/12 02:31:21;;;;;;;43.17;26.70;;;;;;;5.98;45.93;100210.61;1788884;79;21271;-44
2021/04/12 02:33:42;;;;;;;49.95;28.77;;;;;;;5.99;46.56;100210.31;1777866;79;21165;-44
2021/04/12 02:36:35;;;;;;;49.63;28.47;;;;;;;6.00;46.75;100213.80;1787863;79;21047;-44
2021/04/12 02:39:58;;;;;;;49.77;28.07;;;;;;;6.01;47.14;100214.02;1750856;79;21158;-44
2021/04/12 02:42:51;;;;;;;49.65;27.95;;;;;;;6.00;48.08;100211.88;1787247;79;21153;-44
2021/04/12 02:45:36;;;;;;;46.40;28.45;;;;;;;5.95;48.52;100213.38;1787931;79;21377;-44
2021/04/12 02:48:41;;;;;;;47.25;28.25;;;;;;;5.93;48.64;100215.57;1781212;79;21169;-44
2021/04/12 02:51:40;;;;;;;48.42;28.80;;;;;;;5.92;49.05;100215.87;1781561;79;21189;-44
2021/04/12 02:54:37;;;;;;;35.55;22.00;;;;;;;5.89;48.20;100204.38;1788431;79;21130;-44
2021/04/12 02:57:43;;;;;;;54.23;29.98;;;;;;;5.86;47.60;100206.30;1807030;77;21169;-45
2021/04/12 03:00:22;;;;;;;48.02;27.93;;;;;;;5.82;47.08;100205.32;1819109;78;23551;-45
2021/04/12 03:03:13;;;;;;;50.33;29.85;;;;;;;5.77;46.39;100212.17;1821350;77;21731;-44
2021/04/12 03:06:14;;;;;;;50.05;27.98;;;;;;;5.76;47.11;100204.65;1735877;80;21168;-44
2021/04/12 03:09:22;;;;;;;45.40;28.47;;;;;;;5.73;46.58;100201.23;1766851;80;21165;-44
2021/04/12 03:12:33;;;;;;;51.23;29.35;;;;;;;5.72;46.57;100198.84;1754633;80;21629;-44
2021/04/12 03:15:04;;;;;;;;;;;;;;;5.69;46.53;100198.92;1743063;81;21386;-44
2021/04/12 03:18:03;;;;;;;45.60;27.58;;;;;;;5.66;46.31;100192.82;1731514;81;20178;-44
2021/04/12 03:20:55;;;;;;;47.57;29.00;;;;;;;5.57;46.26;100194.08;1760915;80;21169;-44
2021/04/12 03:24:00;;;;;;;49.88;29.07;;;;;;;5.60;47.04;100186.77;1787627;80;21101;-44
2021/04/12 03:26:54;;;;;;;53.33;30.92;;;;;;;5.64;47.08;100185.59;1778033;80;21180;-44
2021/04/12 03:30:03;;;;;;;51.73;29.98;;;;;;;5.67;48.11;100183.63;1771241;78;21202;-44
2021/04/12 03:32:58;;;;;;;45.40;29.77;;;;;;;5.70;48.91;100181.69;1755363;81;21211;-44
2021/04/12 03:36:18;;;;;;;49.25;30.30;;;;;;;5.73;49.13;100175.68;1774419;78;21187;-44
2021/04/12 03:39:10;;;;;;;54.88;31.02;;;;;;;5.77;50.39;100177.20;1733363;80;21215;-44
2021/04/12 03:42:06;;;;;;;47.90;29.72;;;;;;;5.75;50.38;100171.34;1760301;80;21191;-44
2021/04/12 03:45:11;;;;;;;52.48;30.40;;;;;;;5.80;48.41;100177.95;1726346;83;21290;-44
2021/04/12 03:47:56;;;;;;;51.08;31.73;;;;;;;5.84;47.21;100172.19;1793976;78;21212;-44
2021/04/12 03:50:52;;;;;;;47.03;31.23;;;;;;;5.92;46.20;100166.08;1800991;78;21132;-44
2021/04/12 03:53:41;;;;;;;51.02;30.60;;;;;;;6.00;45.61;100171.50;1809577;77;21600;-45
2021/04/12 03:56:24;;;;;;;53.83;31.07;;;;;;;6.15;44.69;100170.89;1795239;78;21161;-44
2021/04/12 03:59:18;;;;;;;53.90;32.40;;;;;;;6.27;43.91;100169.19;1796107;78;23575;-44
2021/04/12 04:01:58;;;;;;;52.62;31.05;;;;;;;6.39;44.09;100173.42;1812553;78;22164;-44
2021/04/12 04:04:55;;;;;;;49.90;30.20;;;;;;;6.48;43.88;100174.27;1804925;77;20977;-44
2021/04/12 04:07:55;;;;;;;48.80;31.82;;;;;;;6.58;43.72;100173.73;1794605;78;21185;-44
2021/04/12 04:11:03;;;;;;;49.00;31.07;;;;;;;6.64;43.42;100169.77;1801472;77;21608;-44
2021/04/12 04:13:53;;;;;;;51.00;31.05;;;;;;;6.71;43.37;100170.12;1747344;81;21267;-44
2021/04/12 04:16:42;;;;;;;47.15;31.00;;;;;;;6.76;43.17;100169.42;1765610;80;21469;-44
2021/04/12 04:19:40;;;;;;;57.70;33.45;;;;;;;6.83;43.04;100175.68;1761707;80;21155;-44
2021/04/12 04:22:33;;;;;;;53.92;33.18;;;;;;;6.90;43.07;100176.02;1760453;80;21171;-44
2021/04/12 04:25:41;;;;;;;51.77;33.10;;;;;;;6.97;42.86;100176.36;1760495;78;21548;-44
2021/04/12 04:28:32;;;;;;;49.88;31.57;;;;;;;7.01;42.89;100174.62;1740009;81;21277;-44
2021/04/12 04:31:33;;;;;;;49.60;32.50;;;;;;;7.05;42.73;100181.52;1764514;80;21207;-44
2021/04/12 04:34:30;;;;;;;49.08;32.20;;;;;;;7.07;42.51;100177.96;1823411;78;21604;-44
2021/04/12 04:37:28;;;;;;;51.15;30.90;;;;;;;7.08;42.73;100177.62;1795178;78;22112;-45
2021/04/12 04:40:36;;;;;;;52.62;31.17;;;;;;;7.09;42.56;100177.87;1799958;78;21631;-44
2021/04/12 04:43:43;;;;;;;52.40;31.65;;;;;;;7.12;42.70;100175.87;1824062;78;21272;-44
2021/04/12 04:46:37;;;;;;;49.83;30.95;;;;;;;7.15;42.64;100176.61;1813386;78;20988;-44
2021/04/12 04:49:25;;;;;;;51.83;33.05;;;;;;;7.19;42.70;100180.81;1818815;78;21557;-45
2021/04/12 04:52:20;;;;;;;54.00;32.88;;;;;;;7.23;42.74;100168.27;1815848;78;21094;-44
2021/04/12 04:55:08;;;;;;;49.90;31.82;;;;;;;7.29;42.96;100167.81;1804880;77;21475;-44
2021/04/12 04:58:03;;;;;;;55.05;32.35;;;;;;;7.35;42.88;100165.75;1813039;77;21452;-44
2021/04/12 05:00:42;;;;;;;52.60;32.38;;;;;;;7.41;42.51;100166.59;1793028;78;21159;-44
2021/04/12 05:03:43;;;;;;;52.75;31.42;;;;;;;7.46;42.71;100163.50;1787561;79;21597;-44
2021/04/12 05:06:45;;;;;;;53.30;33.28;;;;;;;7.52;42.64;100154.14;1790398;79;21206;-44
2021/04/12 05:09:53;;;;;;;54.00;32.78;;;;;;;7.56;42.64;100152.37;1711265;79;21166;-44
2021/04/12 05:13:00;;;;;;;54.98;34.53;;;;;;;7.60;42.62;100151.42;1780544;79;21861;-44
2021/04/12 05:16:11;;;;;;;55.35;34.55;;;;;;;7.65;42.65;100147.79;1795518;79;21071;-44
2021/04/12 05:19:00;;;;;;;57.20;34.67;;;;;;;7.71;42.69;100142.44;1749509;80;21174;-44
2021/04/12 05:21:58;;;;;;;60.20;34.13;;;;;;;7.78;42.72;100146.25;1740669;81;21214;-44
2021/04/12 05:25:14;;;;;;;56.02;33.85;;;;;;;7.97;42.90;100147.22;1822017;77;24086;-42
2021/04/12 05:28:00;;;;;;;51.05;33.35;;;;;;;8.02;42.80;100143.00;1798502;79;21047;-42
2021/04/12 05:30:53;;;;;;;49.83;31.95;;;;;;;8.13;42.74;100146.91;1788215;79;21151;-42
2021/04/12 05:33:51;;;;;;;53.98;32.95;;;;;;;8.22;42.66;100149.05;1806357;78;21024;-42
2021/04/12 05:36:46;;;;;;;51.95;32.85;;;;;;;8.33;42.58;100148.13;1793214;79;21021;-42
2021/04/12 05:39:34;;;;;;;53.55;33.08;;;;;;;8.42;42.89;100138.66;1787480;79;21130;-42
2021/04/12 05:42:32;;;;;;;51.68;33.48;;;;;;;8.53;43.02;100133.89;1804420;79;20999;-42
2021/04/12 05:45:21;;;;;;;50.35;33.18;;;;;;;8.63;42.97;100133.52;1798695;77;22301;-42
2021/04/12 05:48:37;;;;;;;56.15;35.45;;;;;;;8.73;43.12;100127.73;1730118;82;21051;-42
2021/04/12 05:51:19;;;;;;;51.15;32.98;;;;;;;8.84;43.24;100123.29;1734197;82;21077;-42
2021/04/12 05:54:11;;;;;;;56.75;32.23;;;;;;;8.93;43.60;100122.10;1748296;80;21173;-43
2021/04/12 05:57:15;;;;;;;46.48;31.37;;;;;;;9.03;43.61;100121.71;1750431;81;21149;-43
2021/04/12 06:00:10;;;;;;;53.50;32.67;;;;;;;9.12;43.69;100125.13;1746467;79;21217;-43
2021/04/12 06:03:05;;;;;;;53.38;31.17;;;;;;;9.25;43.69;100115.70;1777017;80;21669;-43
2021/04/12 06:05:42;;;;;;;48.98;31.68;;;;;;;9.38;43.88;100118.16;1766244;80;21630;-43
2021/04/12 06:08:39;;;;;;;48.95;31.17;;;;;;;9.51;43.92;100121.13;1763137;80;21140;-43
2021/04/12 06:11:28;;;;;;;47.90;31.48;;;;;;;9.66;43.78;100117.55;1761991;80;21469;-43
2021/04/12 06:14:22;;;;;;;37.42;22.80;;;;;;;9.80;43.43;100120.19;1767035;80;21379;-43
2021/04/12 06:17:32;;;;;;;46.80;31.93;;;;;;;9.96;43.08;100119.78;1746146;80;21636;-43
2021/04/12 06:20:39;;;;;;;47.75;31.07;;;;;;;10.13;42.78;100132.88;1769961;80;21581;-43
2021/04/12 06:23:21;;;;;;;51.33;30.55;;;;;;;10.24;42.38;100125.92;1719525;82;21760;-43
2021/04/12 06:26:13;;;;;;;45.40;28.75;;;;;;;10.35;42.39;100125.14;1735301;81;21603;-43
2021/04/12 06:28:47;;;;;;;44.65;29.10;;;;;;;10.49;42.90;100123.44;1724898;81;21832;-43
2021/04/12 06:31:33;;;;;;;44.70;28.73;;;;;;;10.64;42.92;100121.95;1772000;79;21179;-43
2021/04/12 06:34:30;;;;;;;47.13;29.65;;;;;;;10.78;42.67;100114.25;1772868;79;21618;-43
2021/04/12 06:37:56;;;;;;;45.88;28.87;;;;;;;10.93;41.80;100119.53;1779618;79;21636;-43
2021/04/12 06:41:01;;;;;;;45.15;29.70;;;;;;;11.07;41.79;100115.31;1754402;81;21153;-43
2021/04/12 06:44:20;;;;;;;42.55;28.07;;;;;;;11.22;42.76;100108.36;1764741;79;21340;-43
2021/04/12 06:47:19;;;;;;;44.85;28.57;;;;;;;11.42;42.70;100106.02;1797383;79;21047;-42
2021/04/12 06:50:40;;;;;;;39.75;26.87;;;;;;;11.64;42.23;100101.37;1801266;79;21154;-44
2021/04/12 06:53:51;;;;;;;36.13;25.08;;;;;;;11.85;41.59;100099.02;1785381;79;21047;-44
2021/04/12 06:56:41;;;;;;;39.08;25.12;;;;;;;12.08;41.22;100095.34;1781415;79;26713;-44
2021/04/12 06:59:30;;;;;;;34.40;24.07;;;;;;;12.34;39.61;100091.30;1801465;79;21272;-43
2021/04/12 07:02:17;;;;;;;34.57;23.90;;;;;;;12.53;38.97;100089.42;1800940;79;21000;-44
2021/04/12 07:05:29;;;;;;;34.10;23.65;;;;;;;12.72;39.30;100083.22;1798084;79;21473;-44
2021/04/12 07:08:31;;;;;;;33.67;22.30;;;;;;;12.92;38.19;100083.47;1747080;81;21143;-45
2021/04/12 07:11:28;;;;;;;32.08;22.98;;;;;;;13.14;38.00;100085.27;1728826;82;21155;-44
2021/04/12 07:14:18;;;;;;;32.58;21.68;;;;;;;13.37;36.65;100082.03;1749296;81;21353;-45
2021/04/12 07:17:19;;;;;;;34.33;21.20;;;;;;;13.57;35.41;100085.52;1730783;82;21044;-45
2021/04/12 07:20:33;;;;;;;31.82;21.97;;;;;;;13.68;34.90;100085.14;1710216;83;21206;-45
2021/04/12 07:23:52;;;;;;;33.02;21.12;;;;;;;13.74;35.17;100080.97;1715923;82;21171;-45
2021/04/12 07:27:15;;;;;;;32.03;22.00;;;;;;;13.87;35.50;100067.37;1729490;82;21171;-45
2021/04/12 07:30:00;;;;;;;30.05;20.15;;;;;;;14.03;34.76;100073.49;1713783;83;23513;-45
2021/04/12 07:32:58;;;;;;;25.32;17.07;;;;;;;14.16;34.75;100068.05;1726055;81;21608;-46
2021/04/12 07:36:12;;;;;;;26.07;18.67;;;;;;;14.35;34.61;100073.98;1739050;81;21207;-44
2021/04/12 07:39:19;;;;;;;30.17;19.92;;;;;;;14.54;34.30;100074.47;1738288;82;21754;-44
2021/04/12 07:42:20;;;;;;;30.48;19.77;;;;;;;14.73;34.18;100063.43;1723654;82;21223;-44
2021/04/12 07:45:36;;;;;;;25.05;16.55;;;;;;;14.94;33.36;100060.20;1738251;82;21204;-44
2021/04/12 07:48:46;;;;;;;26.82;17.57;;;;;;;15.13;33.28;100058.67;1681434;84;21252;-44
2021/04/12 07:52:10;;;;;;;28.65;17.77;;;;;;;15.33;32.33;100056.55;1684475;83;21215;-44
2021/04/12 07:54:53;;;;;;;29.82;18.17;;;;;;;15.46;31.65;100051.81;1736224;81;21189;-44
2021/04/12 07:57:50;;;;;;;28.25;18.42;;;;;;;15.57;32.11;100047.86;1682816;84;21155;-44
2021/04/12 08:00:47;;;;;;;23.38;17.45;;;;;;;15.72;32.35;100048.20;1704212;83;21292;-44
2021/04/12 08:03:57;;;;;;;27.42;17.92;;;;;;;15.91;31.45;100047.18;1697546;82;21186;-44
2021/04/12 08:07:03;;;;;;;;;;;;;;;15.97;30.44;100042.36;1677111;84;21063;-44
2021/04/12 08:10:08;;;;;;;22.00;15.43;;;;;;;15.95;30.84;100038.42;1698126;83;20300;-44
2021/04/12 08:13:10;;;;;;;23.12;16.05;;;;;;;15.95;30.24;100032.38;1644851;84;21245;-44
2021/04/12 08:16:15;;;;;;;21.12;14.90;;;;;;;16.08;30.21;100022.69;1689128;83;21433;-44
2021/04/12 08:19:04;;;;;;;26.30;15.00;;;;;;;16.20;29.47;100028.45;1663579;83;21186;-44
2021/04/12 08:22:29;;;;;;;20.97;14.23;;;;;;;16.40;29.26;100027.61;1665568;84;21075;-44
2021/04/12 08:25:24;;;;;;;18.67;14.38;;;;;;;16.58;29.73;100024.41;1696529;82;21185;-44
2021/04/12 08:28:33;;;;;;;17.10;12.35;;;;;;;16.63;29.46;100023.25;1700401;83;21186;-44
2021/04/12 08:31:36;;;;;;;25.05;14.50;;;;;;;16.70;29.25;100015.09;1667493;84;22600;-44
2021/04/12 08:34:53;;;;;;;23.22;13.85;;;;;;;16.89;29.72;100012.80;1720083;80;21007;-44
2021/04/12 08:38:07;;;;;;;22.73;14.33;;;;;;;17.04;28.67;100006.02;1726839;81;21628;-44
2021/04/12 08:41:27;;;;;;;20.02;14.07;;;;;;;17.14;29.06;100001.13;1720717;82;21177;-44
2021/04/12 08:44:22;;;;;;;23.30;14.78;;;;;;;17.27;28.82;99995.51;1727316;81;21115;-44
2021/04/12 08:47:08;;;;;;;22.77;15.55;;;;;;;17.38;28.00;99986.11;1724770;82;21207;-44
2021/04/12 08:50:16;;;;;;;20.17;13.70;;;;;;;17.52;28.33;99982.62;1696779;81;21134;-44
2021/04/12 08:53:32;;;;;;;17.95;13.72;;;;;;;17.63;28.12;99979.89;1734363;81;21186;-44
2021/04/12 08:56:32;;;;;;;21.37;13.83;;;;;;;17.74;26.98;99977.94;1730028;81;21865;-45
2021/04/12 08:59:21;;;;;;;20.12;13.00;;;;;;;17.83;27.13;99970.69;1723460;81;21649;-45
2021/04/12 09:02:00;;;;;;;15.55;11.85;;;;;;;17.95;26.19;99967.55;1731400;81;21213;-44
2021/04/12 09:05:07;;;;;;;;;;;;;;;17.95;25.50;99962.06;1744904;81;21205;-44
2021/04/12 09:07:57;;;;;;;15.98;11.28;;;;;;;17.98;24.43;99959.31;1725466;81;20177;-44
2021/04/12 09:10:49;;;;;;;16.20;11.10;;;;;;;17.94;24.82;99955.80;1725902;81;21647;-44
2021/04/12 09:14:07;;;;;;;15.48;11.18;;;;;;;18.10;25.01;99952.05;1738455;81;21212;-44
2021/04/12 09:16:58;;;;;;;15.20;10.95;;;;;;;18.29;25.61;99941.22;1738988;81;21182;-44
2021/04/12 09:20:01;;;;;;;15.53;11.75;;;;;;;18.49;24.25;99934.06;1736325;82;21154;-44
2021/04/12 09:23:01;;;;;;;15.98;11.65;;;;;;;18.59;24.27;99925.61;1740166;81;21110;-45
2021/04/12 09:26:06;;;;;;;18.15;11.00;;;;;;;18.60;23.96;99918.95;1742803;80;21162;-45
2021/04/12 09:28:52;;;;;;;15.75;10.13;;;;;;;18.56;24.54;99914.84;1766037;80;21213;-45
2021/04/12 09:31:59;;;;;;;14.65;9.78;;;;;;;18.61;24.88;99910.31;1742814;80;21378;-44
2021/04/12 09:35:06;;;;;;;13.18;9.13;;;;;;;18.78;24.22;99914.75;1744903;80;21713;-44
2021/04/12 09:38:23;;;;;;;14.47;9.25;;;;;;;18.81;24.19;99912.56;1747864;81;21188;-45
2021/04/12 09:41:21;;;;;;;11.73;8.65;;;;;;;18.86;23.12;99909.40;1746333;80;21167;-44
2021/04/12 09:44:24;;;;;;;15.65;8.70;;;;;;;18.83;22.05;99897.23;1721065;80;21203;-45
2021/04/12 09:47:33;;;;;;;11.33;7.78;;;;;;;18.82;22.65;99900.41;1739418;81;21370;-45
2021/04/12 09:50:57;;;;;;;11.70;7.83;;;;;;;18.86;22.85;99896.45;1750742;80;21198;-44
2021/04/12 09:53:54;;;;;;;10.60;8.13;;;;;;;19.02;22.60;99891.25;1750120;80;21166;-45
2021/04/12 09:56:47;;;;;;;13.15;8.35;;;;;;;19.17;22.37;99891.91;1763867;80;21634;-45
2021/04/12 09:59:42;;;;;;;12.05;7.67;;;;;;;19.31;22.06;99882.20;1741618;80;21167;-45
2021/04/12 10:02:54;;;;;;;13.32;8.03;;;;;;;19.31;22.33;99879.45;1746908;80;21184;-45
2021/04/12 10:05:42;;;;;;;11.57;7.45;;;;;;;19.22;23.17;99881.85;1742349;80;21442;-45
2021/04/12 10:08:28;;;;;;;10.98;7.30;;;;;;;19.01;22.83;99873.78;1670134;82;21241;-45
2021/04/12 10:11:10;;;;;;;13.68;8.15;;;;;;;18.80;23.15;99867.05;1723527;82;21227;-45
2021/04/12 10:14:12;;;;;;;12.05;7.33;;;;;;;18.53;22.47;99879.97;1763457;80;21130;-45
2021/04/12 10:16:55;;;;;;;14.98;8.93;;;;;;;18.22;23.32;99873.98;1710940;83;21250;-45
2021/04/12 10:19:23;;;;;;;12.55;8.13;;;;;;;17.96;24.44;99877.22;1762080;80;21188;-45
2021/04/12 10:21:58;;;;;;;12.25;8.58;;;;;;;17.74;25.20;99868.25;1746782;80;21167;-45
2021/04/12 10:24:56;;;;;;;12.65;8.80;;;;;;;17.58;25.40;99880.97;1751039;79;21916;-45
2021/04/12 10:27:36;;;;;;;10.35;7.28;;;;;;;17.44;25.83;99878.23;1732387;80;21136;-44
2021/04/12 10:30:14;;;;;;;9.80;6.83;;;;;;;17.35;26.44;99879.23;1725984;81;21325;-45
2021/04/12 10:32:54;;;;;;;11.12;7.78;;;;;;;17.36;26.92;99875.31;1708447;83;21187;-45
2021/04/12 10:35:43;;;;;;;15.25;7.70;;;;;;;17.37;26.24;99882.38;1754432;80;21166;-45
2021/04/12 10:38:31;;;;;;;10.15;6.85;;;;;;;17.35;26.82;99871.80;1742281;81;21162;-45
2021/04/12 10:41:30;;;;;;;12.20;6.65;;;;;;;17.35;27.18;99870.42;1752137;81;21187;-44
2021/04/12 10:44:36;;;;;;;13.65;6.55;;;;;;;17.40;26.42;99869.23;1820992;78;22775;-44
2021/04/12 10:47:12;;;;;;;11.28;7.05;;;;;;;17.30;26.90;99874.92;1805158;78;20995;-44
2021/04/12 10:50:01;;;;;;;9.83;6.50;;;;;;;17.25;27.51;99871.79;1739581;81;21537;-44
2021/04/12 10:53:16;;;;;;;9.43;6.97;;;;;;;17.17;26.75;99862.01;1765086;80;21025;-44
2021/04/12 10:56:04;;;;;;;10.78;6.53;;;;;;;16.94;26.57;99867.27;1770973;80;21036;-44
2021/04/12 10:59:06;;;;;;;12.05;6.25;;;;;;;16.70;27.19;99861.77;1781290;79;21042;-45
2021/04/12 11:01:46;;;;;;;8.25;5.58;;;;;;;16.60;27.41;99863.31;1775329;79;21038;-45
2021/04/12 11:04:56;;;;;;;7.65;4.80;;;;;;;16.48;27.21;99858.15;1709928;82;22289;-44
2021/04/12 11:07:40;;;;;;;;;;;;;;;16.37;26.50;99867.69;1768097;80;21012;-44
2021/04/12 11:10:38;;;;;;;5.78;3.90;;;;;;;16.24;27.08;99863.73;1755158;80;20212;-44
2021/04/12 11:13:20;;;;;;;10.10;4.55;;;;;;;16.07;26.76;99863.84;1763537;80;21198;-44
2021/04/12 11:16:01;;;;;;;11.75;4.80;;;;;;;16.05;27.11;99862.09;1743533;80;21400;-44
2021/04/12 11:19:09;;;;;;;9.70;5.10;;;;;;;15.80;27.57;99807.86;1770497;80;21356;-44
2021/04/12 11:22:11;;;;;;;13.65;5.92;;;;;;;16.20;27.76;99858.84;1748192;80;21173;-44
2021/04/12 11:24:54;;;;;;;13.15;6.78;;;;;;;16.22;27.63;99855.70;1741595;78;21082;-44
2021/04/12 11:28:02;;;;;;;14.35;7.90;;;;;;;16.14;27.98;99850.01;1745734;82;21169;-44
2021/04/12 11:30:52;;;;;;;12.10;8.20;;;;;;;16.05;28.17;99851.16;1719451;80;21201;-44
2021/04/12 11:33:41;;;;;;;15.20;8.98;;;;;;;15.91;28.81;99853.83;1773977;79;21615;-44
2021/04/12 11:36:42;;;;;;;13.78;8.83;;;;;;;15.80;28.93;99854.34;1763486;80;21202;-45
2021/04/12 11:39:18;;;;;;;14.83;9.00;;;;;;;15.69;29.41;99852.12;1743275;82;21166;-45
2021/04/12 11:42:08;;;;;;;14.68;8.53;;;;;;;15.56;29.69;99852.23;1764847;80;21998;-45
2021/04/12 11:44:47;;;;;;;10.65;7.97;;;;;;;15.46;29.65;99852.34;1728902;80;21187;-44
2021/04/12 11:47:39;;;;;;;13.35;8.98;;;;;;;15.41;30.12;99853.27;1763808;80;21187;-44
2021/04/12 11:50:42;;;;;;;13.05;8.05;;;;;;;15.38;29.97;99852.09;1746611;81;21591;-45
2021/04/12 11:53:44;;;;;;;16.80;9.33;;;;;;;15.33;30.07;99844.83;1769322;80;21190;-45
2021/04/12 11:56:18;;;;;;;13.30;8.75;;;;;;;15.29;30.29;99842.08;1794540;78;21141;-44
2021/04/12 11:58:51;;;;;;;12.40;7.58;;;;;;;15.23;29.44;99835.39;1773847;78;21192;-44
2021/04/12 12:01:32;;;;;;;13.70;7.70;;;;;;;15.18;29.78;99836.53;1768456;79;23456;-44
2021/04/12 12:04:14;;;;;;;13.50;7.63;;;;;;;15.11;30.02;99828.27;1761122;80;21623;-45
2021/04/12 12:08:54;;;;;;;14.73;8.45;;;;;;;15.19;29.60;99838.11;1855540;76;23054;-45
2021/04/12 12:12:05;;;;;;;15.45;8.20;;;;;;;15.06;29.80;99843.63;1843164;77;21018;-45
2021/04/12 12:15:03;;;;;;;12.90;8.28;;;;;;;15.04;29.82;99843.24;1827922;77;21285;-46
2021/04/12 12:17:45;;;;;;;13.48;7.83;;;;;;;14.98;30.09;99836.55;1836243;77;20960;-45
2021/04/12 12:20:41;;;;;;;12.53;6.92;;;;;;;14.94;30.34;99834.37;1835886;77;20979;-46
2021/04/12 12:23:44;;;;;;;10.85;6.62;;;;;;;14.89;31.21;99833.93;1828030;78;21031;-45
2021/04/12 12:26:46;;;;;;;11.73;7.75;;;;;;;14.83;31.88;99825.87;1828868;78;21082;-45
2021/04/12 12:29:28;;;;;;;11.80;6.90;;;;;;;14.76;31.84;99834.80;1828551;78;22110;-45
2021/04/12 12:32:22;;;;;;;11.03;7.10;;;;;;;14.68;32.27;99832.56;1794633;78;21063;-45
2021/04/12 12:35:11;;;;;;;8.88;5.20;;;;;;;14.68;33.46;99831.78;1828676;78;21719;-45
2021/04/12 12:38:16;;;;;;;10.80;4.70;;;;;;;14.67;34.82;99837.81;1775749;78;22151;-45
2021/04/12 12:40:58;;;;;;;10.23;4.78;;;;;;;14.63;36.72;99832.12;1828891;78;21213;-45
2021/04/12 12:43:34;;;;;;;9.40;4.95;;;;;;;14.60;36.74;99834.24;1829024;78;21315;-45
2021/04/12 12:46:10;;;;;;;10.05;4.85;;;;;;;14.61;36.15;99834.45;1829143;78;20987;-45
2021/04/12 12:48:55;;;;;;;9.48;5.45;;;;;;;14.58;36.20;99825.63;1829034;78;21727;-45
2021/04/12 12:51:29;;;;;;;7.87;4.70;;;;;;;14.58;36.02;99827.78;1829038;78;21157;-45
2021/04/12 12:54:05;;;;;;;7.87;4.90;;;;;;;14.56;36.40;99819.78;1832397;77;21149;-45
2021/04/12 12:56:37;;;;;;;8.45;5.37;;;;;;;14.53;36.98;99819.15;1858953;77;21199;-44
2021/04/12 12:59:28;;;;;;;7.75;4.70;;;;;;;14.49;36.66;99826.52;1859182;77;21019;-44
2021/04/12 13:01:58;;;;;;;10.80;4.95;;;;;;;14.46;36.79;99827.27;1859195;77;21054;-43
2021/04/12 13:04:28;;;;;;;9.70;5.20;;;;;;;14.44;37.38;99818.67;1859244;77;21627;-44
2021/04/12 13:07:01;;;;;;;10.18;5.58;;;;;;;14.40;38.24;99817.84;1859025;77;21098;-44
2021/04/12 13:09:34;;;;;;;9.50;4.83;;;;;;;14.35;39.74;99819.73;1856395;77;21186;-44
2021/04/12 13:12:14;;;;;;;9.95;5.17;;;;;;;14.30;39.62;99828.82;1859260;77;21624;-44
2021/04/12 13:14:45;;;;;;;11.73;5.03;;;;;;;14.27;39.64;99836.39;1859142;77;21150;-45
2021/04/12 13:17:27;;;;;;;11.93;4.92;;;;;;;14.22;39.87;99830.70;1859197;77;21185;-45
2021/04/12 13:20:04;;;;;;;8.10;4.87;;;;;;;14.19;40.01;99827.33;1858661;77;21512;-45
2021/04/12 13:22:40;;;;;;;7.67;4.83;;;;;;;13.82;40.34;99778.79;1858453;77;21553;-45
2021/04/12 13:25:19;;;;;;;8.70;5.10;;;;;;;14.05;41.10;99821.70;1824915;77;21169;-45
2021/04/12 13:27:53;;;;;;;9.75;4.72;;;;;;;14.03;42.04;99821.31;1814258;77;21585;-45